sensor_id;sensor_type;location;lat;lon;timestamp;P1;durP1;ratioP1;P2;durP2;ratioP2
5357;SDS011;2702;51.014;7.170;2023-11-21T00:02:17;10.10;;;7.37;;
5357;SDS011;2702;51.014;7.170;2023-11-21T00:04:43;9.43;;;7.40;;
5357;SDS011;2702;51.014;7.170;2023-11-21T00:07:09;7.40;;;6.40;;
5357;SDS011;2702;51.014;7.170;2023-11-21T00:09:36;7.57;;;6.10;;
5357;SDS011;2702;51.014;7.170;2023-11-21T00:12:03;7.03;;;6.27;;
5357;SDS011;2702;51.014;7.170;2023-11-21T00:14:30;7.63;;;6.23;;
5357;SDS011;2702;51.014;7.170;2023-11-21T00:16:56;9.60;;;6.90;;
5357;SDS011;2702;51.014;7.170;2023-11-21T00:19:24;6.80;;;6.00;;
5357;SDS011;2702;51.014;7.170;2023-11-21T00:21:51;12.97;;;7.67;;
5357;SDS011;2702;51.014;7.170;2023-11-21T00:24:17;11.40;;;7.77;;
5357;SDS011;2702;51.014;7.170;2023-11-21T00:26:43;8.43;;;7.33;;
5357;SDS011;2702;51.014;7.170;2023-11-21T00:29:10;11.93;;;7.60;;
5357;SDS011;2702;51.014;7.170;2023-11-21T00:31:37;9.70;;;7.83;;
5357;SDS011;2702;51.014;7.170;2023-11-21T00:34:05;9.90;;;7.97;;
5357;SDS011;2702;51.014;7.170;2023-11-21T00:36:31;10.57;;;8.03;;
5357;SDS011;2702;51.014;7.170;2023-11-21T00:38:58;11.80;;;8.03;;
5357;SDS011;2702;51.014;7.170;2023-11-21T00:41:25;8.97;;;8.07;;
5357;SDS011;2702;51.014;7.170;2023-11-21T00:43:54;11.87;;;8.80;;
5357;SDS011;2702;51.014;7.170;2023-11-21T00:46:21;12.10;;;8.40;;
5357;SDS011;2702;51.014;7.170;2023-11-21T00:48:50;14.43;;;10.67;;
5357;SDS011;2702;51.014;7.170;2023-11-21T00:51:16;11.13;;;8.60;;
5357;SDS011;2702;51.014;7.170;2023-11-21T00:53:43;14.83;;;9.20;;
5357;SDS011;2702;51.014;7.170;2023-11-21T00:56:09;10.00;;;8.40;;
5357;SDS011;2702;51.014;7.170;2023-11-21T00:58:36;11.97;;;8.53;;
5357;SDS011;2702;51.014;7.170;2023-11-21T01:01:03;8.87;;;7.90;;
5357;SDS011;2702;51.014;7.170;2023-11-21T01:03:29;11.40;;;9.13;;
5357;SDS011;2702;51.014;7.170;2023-11-21T01:05:56;11.30;;;8.90;;
5357;SDS011;2702;51.014;7.170;2023-11-21T01:08:23;14.10;;;10.00;;
5357;SDS011;2702;51.014;7.170;2023-11-21T01:10:50;11.93;;;7.87;;
5357;SDS011;2702;51.014;7.170;2023-11-21T01:13:16;14.93;;;10.10;;
5357;SDS011;2702;51.014;7.170;2023-11-21T01:15:43;10.07;;;8.90;;
5357;SDS011;2702;51.014;7.170;2023-11-21T01:18:09;11.20;;;9.23;;
5357;SDS011;2702;51.014;7.170;2023-11-21T01:20:35;11.37;;;9.67;;
5357;SDS011;2702;51.014;7.170;2023-11-21T01:23:02;14.47;;;10.77;;
5357;SDS011;2702;51.014;7.170;2023-11-21T01:25:28;12.73;;;9.40;;
5357;SDS011;2702;51.014;7.170;2023-11-21T01:27:55;13.03;;;10.77;;
5357;SDS011;2702;51.014;7.170;2023-11-21T01:30:22;14.90;;;11.17;;
5357;SDS011;2702;51.014;7.170;2023-11-21T01:32:48;12.13;;;9.63;;
5357;SDS011;2702;51.014;7.170;2023-11-21T01:35:15;14.20;;;11.67;;
5357;SDS011;2702;51.014;7.170;2023-11-21T01:37:41;12.77;;;10.50;;
5357;SDS011;2702;51.014;7.170;2023-11-21T01:40:08;13.20;;;10.10;;
5357;SDS011;2702;51.014;7.170;2023-11-21T01:42:39;12.33;;;10.40;;
5357;SDS011;2702;51.014;7.170;2023-11-21T01:45:07;12.00;;;10.60;;
5357;SDS011;2702;51.014;7.170;2023-11-21T01:47:35;12.23;;;10.60;;
5357;SDS011;2702;51.014;7.170;2023-11-21T01:50:03;15.13;;;10.73;;
5357;SDS011;2702;51.014;7.170;2023-11-21T01:52:37;12.40;;;10.20;;
5357;SDS011;2702;51.014;7.170;2023-11-21T01:55:07;12.23;;;10.10;;
5357;SDS011;2702;51.014;7.170;2023-11-21T01:57:35;13.10;;;9.60;;
5357;SDS011;2702;51.014;7.170;2023-11-21T02:00:05;13.10;;;10.00;;
5357;SDS011;2702;51.014;7.170;2023-11-21T02:02:44;10.87;;;9.37;;
5357;SDS011;2702;51.014;7.170;2023-11-21T02:05:12;12.30;;;9.50;;
5357;SDS011;2702;51.014;7.170;2023-11-21T02:07:44;12.37;;;9.17;;
5357;SDS011;2702;51.014;7.170;2023-11-21T02:10:14;10.53;;;9.03;;
5357;SDS011;2702;51.014;7.170;2023-11-21T02:12:43;11.03;;;9.00;;
5357;SDS011;2702;51.014;7.170;2023-11-21T02:15:10;9.43;;;8.53;;
5357;SDS011;2702;51.014;7.170;2023-11-21T02:17:43;12.70;;;9.97;;
5357;SDS011;2702;51.014;7.170;2023-11-21T02:20:13;9.27;;;7.80;;
5357;SDS011;2702;51.014;7.170;2023-11-21T02:22:56;9.47;;;7.77;;
5357;SDS011;2702;51.014;7.170;2023-11-21T02:25:24;10.30;;;7.60;;
5357;SDS011;2702;51.014;7.170;2023-11-21T02:27:51;8.77;;;7.87;;
5357;SDS011;2702;51.014;7.170;2023-11-21T02:30:17;9.83;;;7.77;;
5357;SDS011;2702;51.014;7.170;2023-11-21T02:32:45;10.40;;;8.23;;
5357;SDS011;2702;51.014;7.170;2023-11-21T02:35:12;9.23;;;8.13;;
5357;SDS011;2702;51.014;7.170;2023-11-21T02:37:39;10.53;;;9.07;;
5357;SDS011;2702;51.014;7.170;2023-11-21T02:40:10;11.80;;;8.20;;
5357;SDS011;2702;51.014;7.170;2023-11-21T02:42:44;14.63;;;9.60;;
5357;SDS011;2702;51.014;7.170;2023-11-21T02:45:11;11.00;;;8.70;;
5357;SDS011;2702;51.014;7.170;2023-11-21T02:47:40;14.10;;;8.90;;
5357;SDS011;2702;51.014;7.170;2023-11-21T02:50:06;13.23;;;9.47;;
5357;SDS011;2702;51.014;7.170;2023-11-21T02:52:34;13.83;;;9.80;;
5357;SDS011;2702;51.014;7.170;2023-11-21T02:55:02;11.73;;;9.27;;
5357;SDS011;2702;51.014;7.170;2023-11-21T02:57:29;11.10;;;9.23;;
5357;SDS011;2702;51.014;7.170;2023-11-21T02:59:56;12.23;;;9.77;;
5357;SDS011;2702;51.014;7.170;2023-11-21T03:02:22;13.50;;;10.20;;
5357;SDS011;2702;51.014;7.170;2023-11-21T03:04:49;11.47;;;9.70;;
5357;SDS011;2702;51.014;7.170;2023-11-21T03:07:15;11.10;;;9.60;;
5357;SDS011;2702;51.014;7.170;2023-11-21T03:09:42;14.27;;;10.10;;
5357;SDS011;2702;51.014;7.170;2023-11-21T03:12:09;14.50;;;10.70;;
5357;SDS011;2702;51.014;7.170;2023-11-21T03:14:38;13.87;;;10.33;;
5357;SDS011;2702;51.014;7.170;2023-11-21T03:17:05;14.70;;;10.33;;
5357;SDS011;2702;51.014;7.170;2023-11-21T03:19:32;15.97;;;9.87;;
5357;SDS011;2702;51.014;7.170;2023-11-21T03:21:59;15.10;;;9.80;;
5357;SDS011;2702;51.014;7.170;2023-11-21T03:24:25;14.53;;;10.20;;
5357;SDS011;2702;51.014;7.170;2023-11-21T03:26:52;13.67;;;10.43;;
5357;SDS011;2702;51.014;7.170;2023-11-21T03:29:18;11.17;;;9.23;;
5357;SDS011;2702;51.014;7.170;2023-11-21T03:31:45;16.73;;;10.40;;
5357;SDS011;2702;51.014;7.170;2023-11-21T03:34:15;10.90;;;9.40;;
5357;SDS011;2702;51.014;7.170;2023-11-21T03:36:45;13.83;;;9.67;;
5357;SDS011;2702;51.014;7.170;2023-11-21T03:39:12;16.50;;;11.90;;
5357;SDS011;2702;51.014;7.170;2023-11-21T03:41:39;15.50;;;10.70;;
5357;SDS011;2702;51.014;7.170;2023-11-21T03:44:06;13.50;;;11.00;;
5357;SDS011;2702;51.014;7.170;2023-11-21T03:46:32;14.37;;;11.57;;
5357;SDS011;2702;51.014;7.170;2023-11-21T03:48:59;17.50;;;11.70;;
5357;SDS011;2702;51.014;7.170;2023-11-21T03:51:25;16.93;;;12.23;;
5357;SDS011;2702;51.014;7.170;2023-11-21T03:53:52;19.47;;;12.60;;
5357;SDS011;2702;51.014;7.170;2023-11-21T03:56:19;18.57;;;12.37;;
5357;SDS011;2702;51.014;7.170;2023-11-21T03:58:49;19.67;;;12.00;;
5357;SDS011;2702;51.014;7.170;2023-11-21T04:01:22;19.90;;;12.60;;
5357;SDS011;2702;51.014;7.170;2023-11-21T04:03:48;18.67;;;12.27;;
5357;SDS011;2702;51.014;7.170;2023-11-21T04:06:16;18.87;;;11.90;;
5357;SDS011;2702;51.014;7.170;2023-11-21T04:08:44;19.27;;;13.30;;
5357;SDS011;2702;51.014;7.170;2023-11-21T04:11:11;21.83;;;13.60;;
5357;SDS011;2702;51.014;7.170;2023-11-21T04:13:38;18.50;;;12.00;;
5357;SDS011;2702;51.014;7.170;2023-11-21T04:16:06;16.83;;;12.90;;
5357;SDS011;2702;51.014;7.170;2023-11-21T04:18:33;21.00;;;13.23;;
5357;SDS011;2702;51.014;7.170;2023-11-21T04:21:04;16.50;;;12.80;;
5357;SDS011;2702;51.014;7.170;2023-11-21T04:23:31;19.90;;;12.80;;
5357;SDS011;2702;51.014;7.170;2023-11-21T04:25:58;22.20;;;14.60;;
5357;SDS011;2702;51.014;7.170;2023-11-21T04:28:25;23.60;;;14.03;;
5357;SDS011;2702;51.014;7.170;2023-11-21T04:30:51;21.07;;;13.63;;
5357;SDS011;2702;51.014;7.170;2023-11-21T04:33:18;20.17;;;13.33;;
5357;SDS011;2702;51.014;7.170;2023-11-21T04:35:44;24.17;;;14.87;;
5357;SDS011;2702;51.014;7.170;2023-11-21T04:38:11;21.73;;;14.60;;
5357;SDS011;2702;51.014;7.170;2023-11-21T04:40:38;23.17;;;14.57;;
5357;SDS011;2702;51.014;7.170;2023-11-21T04:43:04;22.60;;;15.30;;
5357;SDS011;2702;51.014;7.170;2023-11-21T04:45:32;24.17;;;15.60;;
5357;SDS011;2702;51.014;7.170;2023-11-21T04:47:58;29.57;;;17.70;;
5357;SDS011;2702;51.014;7.170;2023-11-21T04:50:25;26.83;;;17.10;;
5357;SDS011;2702;51.014;7.170;2023-11-21T04:52:53;32.27;;;17.77;;
5357;SDS011;2702;51.014;7.170;2023-11-21T04:55:19;27.73;;;18.83;;
5357;SDS011;2702;51.014;7.170;2023-11-21T04:57:46;31.90;;;18.93;;
5357;SDS011;2702;51.014;7.170;2023-11-21T05:00:12;26.50;;;18.23;;
5357;SDS011;2702;51.014;7.170;2023-11-21T05:02:40;33.87;;;19.07;;
5357;SDS011;2702;51.014;7.170;2023-11-21T05:05:07;25.97;;;17.97;;
5357;SDS011;2702;51.014;7.170;2023-11-21T05:07:36;29.00;;;18.10;;
5357;SDS011;2702;51.014;7.170;2023-11-21T05:10:05;28.83;;;18.30;;
5357;SDS011;2702;51.014;7.170;2023-11-21T05:12:41;31.97;;;18.33;;
5357;SDS011;2702;51.014;7.170;2023-11-21T05:15:08;32.40;;;18.40;;
5357;SDS011;2702;51.014;7.170;2023-11-21T05:17:36;32.00;;;18.33;;
5357;SDS011;2702;51.014;7.170;2023-11-21T05:20:03;33.80;;;19.30;;
5357;SDS011;2702;51.014;7.170;2023-11-21T05:22:34;35.17;;;17.50;;
5357;SDS011;2702;51.014;7.170;2023-11-21T05:25:01;31.20;;;19.07;;
5357;SDS011;2702;51.014;7.170;2023-11-21T05:27:29;31.60;;;16.10;;
5357;SDS011;2702;51.014;7.170;2023-11-21T05:30:00;32.07;;;16.63;;
5357;SDS011;2702;51.014;7.170;2023-11-21T05:32:31;33.07;;;18.47;;
5357;SDS011;2702;51.014;7.170;2023-11-21T05:34:58;34.20;;;17.90;;
5357;SDS011;2702;51.014;7.170;2023-11-21T05:37:25;30.43;;;18.47;;
5357;SDS011;2702;51.014;7.170;2023-11-21T05:39:53;31.73;;;16.80;;
5357;SDS011;2702;51.014;7.170;2023-11-21T05:42:22;30.30;;;17.53;;
5357;SDS011;2702;51.014;7.170;2023-11-21T05:44:49;34.53;;;19.57;;
5357;SDS011;2702;51.014;7.170;2023-11-21T05:47:15;25.00;;;17.10;;
5357;SDS011;2702;51.014;7.170;2023-11-21T05:49:42;30.10;;;18.90;;
5357;SDS011;2702;51.014;7.170;2023-11-21T05:52:11;28.80;;;16.93;;
5357;SDS011;2702;51.014;7.170;2023-11-21T05:54:37;31.37;;;19.00;;
5357;SDS011;2702;51.014;7.170;2023-11-21T05:57:06;28.30;;;17.60;;
5357;SDS011;2702;51.014;7.170;2023-11-21T05:59:33;34.10;;;18.37;;
5357;SDS011;2702;51.014;7.170;2023-11-21T06:01:59;30.03;;;17.40;;
5357;SDS011;2702;51.014;7.170;2023-11-21T06:04:25;29.50;;;16.47;;
5357;SDS011;2702;51.014;7.170;2023-11-21T06:06:52;30.63;;;16.20;;
5357;SDS011;2702;51.014;7.170;2023-11-21T06:09:19;28.50;;;18.27;;
5357;SDS011;2702;51.014;7.170;2023-11-21T06:11:46;25.50;;;17.40;;
5357;SDS011;2702;51.014;7.170;2023-11-21T06:14:13;29.27;;;18.43;;
5357;SDS011;2702;51.014;7.170;2023-11-21T06:16:41;31.57;;;17.23;;
5357;SDS011;2702;51.014;7.170;2023-11-21T06:19:07;32.63;;;17.30;;
5357;SDS011;2702;51.014;7.170;2023-11-21T06:21:34;30.47;;;17.70;;
5357;SDS011;2702;51.014;7.170;2023-11-21T06:24:01;27.37;;;16.50;;
5357;SDS011;2702;51.014;7.170;2023-11-21T06:26:27;28.07;;;16.97;;
5357;SDS011;2702;51.014;7.170;2023-11-21T06:28:54;26.93;;;16.27;;
5357;SDS011;2702;51.014;7.170;2023-11-21T06:31:20;27.13;;;17.13;;
5357;SDS011;2702;51.014;7.170;2023-11-21T06:33:47;29.00;;;16.27;;
5357;SDS011;2702;51.014;7.170;2023-11-21T06:36:13;23.87;;;14.43;;
5357;SDS011;2702;51.014;7.170;2023-11-21T06:38:40;26.33;;;15.70;;
5357;SDS011;2702;51.014;7.170;2023-11-21T06:41:06;33.80;;;18.03;;
5357;SDS011;2702;51.014;7.170;2023-11-21T06:43:33;33.37;;;18.60;;
5357;SDS011;2702;51.014;7.170;2023-11-21T06:45:59;32.43;;;18.47;;
5357;SDS011;2702;51.014;7.170;2023-11-21T06:48:26;29.07;;;17.10;;
5357;SDS011;2702;51.014;7.170;2023-11-21T06:50:52;33.63;;;18.63;;
5357;SDS011;2702;51.014;7.170;2023-11-21T06:53:19;29.73;;;17.80;;
5357;SDS011;2702;51.014;7.170;2023-11-21T06:55:45;28.07;;;18.57;;
5357;SDS011;2702;51.014;7.170;2023-11-21T06:58:12;28.53;;;16.90;;
5357;SDS011;2702;51.014;7.170;2023-11-21T07:00:43;33.00;;;18.10;;
5357;SDS011;2702;51.014;7.170;2023-11-21T07:03:13;34.60;;;16.63;;
5357;SDS011;2702;51.014;7.170;2023-11-21T07:05:40;35.57;;;17.07;;
5357;SDS011;2702;51.014;7.170;2023-11-21T07:08:06;34.70;;;17.00;;
5357;SDS011;2702;51.014;7.170;2023-11-21T07:10:33;28.17;;;16.50;;
5357;SDS011;2702;51.014;7.170;2023-11-21T07:13:00;35.27;;;17.50;;
5357;SDS011;2702;51.014;7.170;2023-11-21T07:15:27;32.80;;;16.17;;
5357;SDS011;2702;51.014;7.170;2023-11-21T07:17:54;28.67;;;16.57;;
5357;SDS011;2702;51.014;7.170;2023-11-21T07:20:20;27.50;;;16.80;;
5357;SDS011;2702;51.014;7.170;2023-11-21T07:22:47;30.70;;;18.07;;
5357;SDS011;2702;51.014;7.170;2023-11-21T07:25:13;29.73;;;15.73;;
5357;SDS011;2702;51.014;7.170;2023-11-21T07:27:40;40.53;;;19.40;;
5357;SDS011;2702;51.014;7.170;2023-11-21T07:30:07;30.73;;;17.53;;
5357;SDS011;2702;51.014;7.170;2023-11-21T07:32:35;29.83;;;17.13;;
5357;SDS011;2702;51.014;7.170;2023-11-21T07:35:03;34.63;;;16.63;;
5357;SDS011;2702;51.014;7.170;2023-11-21T07:37:33;34.90;;;16.87;;
5357;SDS011;2702;51.014;7.170;2023-11-21T07:40:00;31.17;;;17.77;;
5357;SDS011;2702;51.014;7.170;2023-11-21T07:42:26;30.80;;;17.40;;
5357;SDS011;2702;51.014;7.170;2023-11-21T07:44:52;29.80;;;16.73;;
5357;SDS011;2702;51.014;7.170;2023-11-21T07:47:19;28.43;;;16.20;;
5357;SDS011;2702;51.014;7.170;2023-11-21T07:49:45;31.87;;;16.73;;
5357;SDS011;2702;51.014;7.170;2023-11-21T07:52:13;34.97;;;18.73;;
5357;SDS011;2702;51.014;7.170;2023-11-21T07:54:42;27.13;;;16.67;;
5357;SDS011;2702;51.014;7.170;2023-11-21T07:57:08;31.20;;;17.80;;
5357;SDS011;2702;51.014;7.170;2023-11-21T07:59:39;31.00;;;18.03;;
5357;SDS011;2702;51.014;7.170;2023-11-21T08:02:06;28.30;;;16.30;;
5357;SDS011;2702;51.014;7.170;2023-11-21T08:04:33;30.13;;;16.33;;
5357;SDS011;2702;51.014;7.170;2023-11-21T08:07:01;28.27;;;16.80;;
5357;SDS011;2702;51.014;7.170;2023-11-21T08:09:32;31.70;;;17.30;;
5357;SDS011;2702;51.014;7.170;2023-11-21T08:12:00;29.90;;;16.97;;
5357;SDS011;2702;51.014;7.170;2023-11-21T08:14:28;30.40;;;17.50;;
5357;SDS011;2702;51.014;7.170;2023-11-21T08:16:55;30.27;;;16.00;;
5357;SDS011;2702;51.014;7.170;2023-11-21T08:19:23;27.83;;;17.57;;
5357;SDS011;2702;51.014;7.170;2023-11-21T08:21:53;25.40;;;16.77;;
5357;SDS011;2702;51.014;7.170;2023-11-21T08:24:21;32.03;;;19.40;;
5357;SDS011;2702;51.014;7.170;2023-11-21T08:26:47;29.37;;;18.03;;
5357;SDS011;2702;51.014;7.170;2023-11-21T08:29:15;29.37;;;17.73;;
5357;SDS011;2702;51.014;7.170;2023-11-21T08:31:42;27.03;;;15.17;;
5357;SDS011;2702;51.014;7.170;2023-11-21T08:34:10;32.37;;;18.67;;
5357;SDS011;2702;51.014;7.170;2023-11-21T08:36:40;29.83;;;17.67;;
5357;SDS011;2702;51.014;7.170;2023-11-21T08:39:08;37.50;;;17.50;;
5357;SDS011;2702;51.014;7.170;2023-11-21T08:41:36;37.83;;;17.77;;
5357;SDS011;2702;51.014;7.170;2023-11-21T08:44:02;32.10;;;18.23;;
5357;SDS011;2702;51.014;7.170;2023-11-21T08:46:33;42.13;;;18.50;;
5357;SDS011;2702;51.014;7.170;2023-11-21T08:49:04;35.63;;;17.83;;
5357;SDS011;2702;51.014;7.170;2023-11-21T08:51:30;35.87;;;16.20;;
5357;SDS011;2702;51.014;7.170;2023-11-21T08:53:57;35.33;;;17.73;;
5357;SDS011;2702;51.014;7.170;2023-11-21T08:56:26;26.07;;;16.67;;
5357;SDS011;2702;51.014;7.170;2023-11-21T08:58:53;37.63;;;16.30;;
5357;SDS011;2702;51.014;7.170;2023-11-21T09:01:19;34.87;;;17.87;;
5357;SDS011;2702;51.014;7.170;2023-11-21T09:03:46;37.80;;;18.27;;
5357;SDS011;2702;51.014;7.170;2023-11-21T09:06:13;31.90;;;17.27;;
5357;SDS011;2702;51.014;7.170;2023-11-21T09:08:40;38.13;;;18.10;;
5357;SDS011;2702;51.014;7.170;2023-11-21T09:11:07;32.30;;;16.40;;
5357;SDS011;2702;51.014;7.170;2023-11-21T09:13:34;32.13;;;17.77;;
5357;SDS011;2702;51.014;7.170;2023-11-21T09:16:01;41.83;;;17.83;;
5357;SDS011;2702;51.014;7.170;2023-11-21T09:18:28;36.40;;;17.73;;
5357;SDS011;2702;51.014;7.170;2023-11-21T09:20:55;44.83;;;19.60;;
5357;SDS011;2702;51.014;7.170;2023-11-21T09:23:21;47.17;;;21.63;;
5357;SDS011;2702;51.014;7.170;2023-11-21T09:25:48;28.80;;;18.10;;
5357;SDS011;2702;51.014;7.170;2023-11-21T09:28:16;37.43;;;17.77;;
5357;SDS011;2702;51.014;7.170;2023-11-21T09:30:43;36.87;;;17.07;;
5357;SDS011;2702;51.014;7.170;2023-11-21T09:33:09;44.03;;;19.70;;
5357;SDS011;2702;51.014;7.170;2023-11-21T09:35:39;36.77;;;18.87;;
5357;SDS011;2702;51.014;7.170;2023-11-21T09:38:05;37.23;;;19.20;;
5357;SDS011;2702;51.014;7.170;2023-11-21T09:40:36;38.87;;;18.80;;
5357;SDS011;2702;51.014;7.170;2023-11-21T09:43:07;35.50;;;17.53;;
5357;SDS011;2702;51.014;7.170;2023-11-21T09:45:42;32.73;;;16.53;;
5357;SDS011;2702;51.014;7.170;2023-11-21T09:48:13;42.80;;;19.57;;
5357;SDS011;2702;51.014;7.170;2023-11-21T09:50:42;35.30;;;18.97;;
5357;SDS011;2702;51.014;7.170;2023-11-21T09:53:19;39.40;;;19.50;;
5357;SDS011;2702;51.014;7.170;2023-11-21T09:55:47;40.37;;;19.87;;
5357;SDS011;2702;51.014;7.170;2023-11-21T09:58:16;38.33;;;19.37;;
5357;SDS011;2702;51.014;7.170;2023-11-21T10:00:45;39.17;;;19.13;;
5357;SDS011;2702;51.014;7.170;2023-11-21T10:03:13;34.47;;;19.70;;
5357;SDS011;2702;51.014;7.170;2023-11-21T10:05:44;40.03;;;19.20;;
5357;SDS011;2702;51.014;7.170;2023-11-21T10:08:15;43.50;;;21.97;;
5357;SDS011;2702;51.014;7.170;2023-11-21T10:10:43;42.70;;;21.40;;
5357;SDS011;2702;51.014;7.170;2023-11-21T10:13:12;44.50;;;21.57;;
5357;SDS011;2702;51.014;7.170;2023-11-21T10:15:42;38.30;;;20.23;;
5357;SDS011;2702;51.014;7.170;2023-11-21T10:18:14;40.43;;;21.93;;
5357;SDS011;2702;51.014;7.170;2023-11-21T10:20:41;43.43;;;21.37;;
5357;SDS011;2702;51.014;7.170;2023-11-21T10:23:09;39.40;;;20.67;;
5357;SDS011;2702;51.014;7.170;2023-11-21T10:25:40;45.27;;;21.40;;
5357;SDS011;2702;51.014;7.170;2023-11-21T10:28:06;45.27;;;21.13;;
5357;SDS011;2702;51.014;7.170;2023-11-21T10:30:34;37.63;;;20.40;;
5357;SDS011;2702;51.014;7.170;2023-11-21T10:33:06;48.87;;;21.23;;
5357;SDS011;2702;51.014;7.170;2023-11-21T10:38:14;43.60;;;22.80;;
5357;SDS011;2702;51.014;7.170;2023-11-21T10:40:41;41.23;;;20.80;;
5357;SDS011;2702;51.014;7.170;2023-11-21T10:43:08;38.47;;;20.53;;
5357;SDS011;2702;51.014;7.170;2023-11-21T10:45:38;37.27;;;20.30;;
5357;SDS011;2702;51.014;7.170;2023-11-21T10:48:09;37.20;;;19.23;;
5357;SDS011;2702;51.014;7.170;2023-11-21T10:50:37;37.47;;;20.10;;
5357;SDS011;2702;51.014;7.170;2023-11-21T10:53:04;39.00;;;22.33;;
5357;SDS011;2702;51.014;7.170;2023-11-21T10:55:31;42.43;;;20.83;;
5357;SDS011;2702;51.014;7.170;2023-11-21T10:58:03;39.20;;;20.97;;
5357;SDS011;2702;51.014;7.170;2023-11-21T11:00:32;34.50;;;20.50;;
5357;SDS011;2702;51.014;7.170;2023-11-21T11:02:59;35.33;;;19.67;;
5357;SDS011;2702;51.014;7.170;2023-11-21T11:05:27;36.33;;;19.67;;
5357;SDS011;2702;51.014;7.170;2023-11-21T11:07:58;39.30;;;20.90;;
5357;SDS011;2702;51.014;7.170;2023-11-21T11:10:29;39.60;;;21.00;;
5357;SDS011;2702;51.014;7.170;2023-11-21T11:12:56;41.33;;;22.00;;
5357;SDS011;2702;51.014;7.170;2023-11-21T11:15:24;40.40;;;21.93;;
5357;SDS011;2702;51.014;7.170;2023-11-21T11:17:52;40.93;;;22.10;;
5357;SDS011;2702;51.014;7.170;2023-11-21T11:20:30;44.50;;;23.07;;
5357;SDS011;2702;51.014;7.170;2023-11-21T11:25:52;49.53;;;23.53;;
5357;SDS011;2702;51.014;7.170;2023-11-21T11:28:47;39.10;;;20.23;;
5357;SDS011;2702;51.014;7.170;2023-11-21T11:34:04;41.73;;;22.30;;
5357;SDS011;2702;51.014;7.170;2023-11-21T11:37:02;41.13;;;21.30;;
5357;SDS011;2702;51.014;7.170;2023-11-21T11:42:08;39.70;;;21.50;;
5357;SDS011;2702;51.014;7.170;2023-11-21T11:47:27;38.03;;;21.40;;
5357;SDS011;2702;51.014;7.170;2023-11-21T11:52:35;35.80;;;20.07;;
5357;SDS011;2702;51.014;7.170;2023-11-21T11:55:15;37.07;;;18.83;;
5357;SDS011;2702;51.014;7.170;2023-11-21T11:57:47;38.03;;;20.40;;
5357;SDS011;2702;51.014;7.170;2023-11-21T12:02:56;36.10;;;19.77;;
5357;SDS011;2702;51.014;7.170;2023-11-21T12:05:25;35.13;;;18.20;;
5357;SDS011;2702;51.014;7.170;2023-11-21T12:08:02;34.47;;;19.33;;
5357;SDS011;2702;51.014;7.170;2023-11-21T12:10:31;39.37;;;19.43;;
5357;SDS011;2702;51.014;7.170;2023-11-21T12:13:03;41.43;;;20.07;;
5357;SDS011;2702;51.014;7.170;2023-11-21T12:15:34;36.57;;;19.00;;
5357;SDS011;2702;51.014;7.170;2023-11-21T12:18:01;35.23;;;18.30;;
5357;SDS011;2702;51.014;7.170;2023-11-21T12:20:30;34.47;;;18.93;;
5357;SDS011;2702;51.014;7.170;2023-11-21T12:22:57;34.27;;;18.83;;
5357;SDS011;2702;51.014;7.170;2023-11-21T12:25:26;34.77;;;20.97;;
5357;SDS011;2702;51.014;7.170;2023-11-21T12:28:01;33.50;;;18.43;;
5357;SDS011;2702;51.014;7.170;2023-11-21T12:30:29;36.43;;;21.40;;
5357;SDS011;2702;51.014;7.170;2023-11-21T12:32:58;35.83;;;19.80;;
5357;SDS011;2702;51.014;7.170;2023-11-21T12:35:33;33.30;;;18.30;;
5357;SDS011;2702;51.014;7.170;2023-11-21T12:38:01;36.07;;;19.53;;
5357;SDS011;2702;51.014;7.170;2023-11-21T12:40:29;31.53;;;18.23;;
5357;SDS011;2702;51.014;7.170;2023-11-21T12:42:56;31.93;;;17.70;;
5357;SDS011;2702;51.014;7.170;2023-11-21T12:45:25;35.10;;;18.60;;
5357;SDS011;2702;51.014;7.170;2023-11-21T12:48:03;27.93;;;17.33;;
5357;SDS011;2702;51.014;7.170;2023-11-21T12:50:34;30.00;;;18.87;;
5357;SDS011;2702;51.014;7.170;2023-11-21T12:53:07;40.03;;;18.90;;
5357;SDS011;2702;51.014;7.170;2023-11-21T12:55:38;35.47;;;20.80;;
5357;SDS011;2702;51.014;7.170;2023-11-21T12:58:05;34.23;;;18.43;;
5357;SDS011;2702;51.014;7.170;2023-11-21T13:00:39;34.93;;;18.70;;
5357;SDS011;2702;51.014;7.170;2023-11-21T13:03:09;40.00;;;19.40;;
5357;SDS011;2702;51.014;7.170;2023-11-21T13:05:38;35.27;;;20.63;;
5357;SDS011;2702;51.014;7.170;2023-11-21T13:08:10;39.17;;;21.07;;
5357;SDS011;2702;51.014;7.170;2023-11-21T13:10:39;35.00;;;20.17;;
5357;SDS011;2702;51.014;7.170;2023-11-21T13:13:09;41.63;;;21.47;;
5357;SDS011;2702;51.014;7.170;2023-11-21T13:15:49;53.40;;;22.83;;
5357;SDS011;2702;51.014;7.170;2023-11-21T13:18:25;44.90;;;22.87;;
5357;SDS011;2702;51.014;7.170;2023-11-21T13:20:53;40.50;;;21.67;;
5357;SDS011;2702;51.014;7.170;2023-11-21T13:23:25;38.27;;;22.40;;
5357;SDS011;2702;51.014;7.170;2023-11-21T13:25:52;41.13;;;20.60;;
5357;SDS011;2702;51.014;7.170;2023-11-21T13:28:19;40.70;;;19.67;;
5357;SDS011;2702;51.014;7.170;2023-11-21T13:30:48;32.80;;;19.10;;
5357;SDS011;2702;51.014;7.170;2023-11-21T13:33:18;39.70;;;20.30;;
5357;SDS011;2702;51.014;7.170;2023-11-21T13:35:47;38.47;;;19.53;;
5357;SDS011;2702;51.014;7.170;2023-11-21T13:38:16;31.43;;;18.10;;
5357;SDS011;2702;51.014;7.170;2023-11-21T13:40:48;35.33;;;17.80;;
5357;SDS011;2702;51.014;7.170;2023-11-21T13:43:22;33.97;;;17.97;;
5357;SDS011;2702;51.014;7.170;2023-11-21T13:45:52;32.17;;;19.10;;
5357;SDS011;2702;51.014;7.170;2023-11-21T13:48:29;30.67;;;17.70;;
5357;SDS011;2702;51.014;7.170;2023-11-21T13:51:06;32.43;;;18.93;;
5357;SDS011;2702;51.014;7.170;2023-11-21T13:53:47;32.03;;;18.80;;
5357;SDS011;2702;51.014;7.170;2023-11-21T13:56:15;31.97;;;17.90;;
5357;SDS011;2702;51.014;7.170;2023-11-21T13:58:46;33.70;;;17.63;;
5357;SDS011;2702;51.014;7.170;2023-11-21T14:01:18;34.10;;;17.20;;
5357;SDS011;2702;51.014;7.170;2023-11-21T14:03:58;30.53;;;18.27;;
5357;SDS011;2702;51.014;7.170;2023-11-21T14:06:51;31.67;;;16.90;;
5357;SDS011;2702;51.014;7.170;2023-11-21T14:09:21;36.90;;;19.63;;
5357;SDS011;2702;51.014;7.170;2023-11-21T14:11:49;34.70;;;18.00;;
5357;SDS011;2702;51.014;7.170;2023-11-21T14:14:23;42.10;;;19.87;;
5357;SDS011;2702;51.014;7.170;2023-11-21T14:16:51;36.40;;;18.30;;
5357;SDS011;2702;51.014;7.170;2023-11-21T14:19:18;30.60;;;16.53;;
5357;SDS011;2702;51.014;7.170;2023-11-21T14:21:45;30.10;;;18.63;;
5357;SDS011;2702;51.014;7.170;2023-11-21T14:24:12;33.03;;;17.10;;
5357;SDS011;2702;51.014;7.170;2023-11-21T14:26:42;33.07;;;18.83;;
5357;SDS011;2702;51.014;7.170;2023-11-21T14:29:12;33.10;;;19.00;;
5357;SDS011;2702;51.014;7.170;2023-11-21T14:31:42;38.53;;;18.37;;
5357;SDS011;2702;51.014;7.170;2023-11-21T14:34:09;35.90;;;16.97;;
5357;SDS011;2702;51.014;7.170;2023-11-21T14:36:38;40.70;;;21.87;;
5357;SDS011;2702;51.014;7.170;2023-11-21T14:39:05;35.90;;;17.80;;
5357;SDS011;2702;51.014;7.170;2023-11-21T14:41:35;39.60;;;20.40;;
5357;SDS011;2702;51.014;7.170;2023-11-21T14:44:04;43.33;;;18.90;;
5357;SDS011;2702;51.014;7.170;2023-11-21T14:46:33;39.67;;;17.90;;
5357;SDS011;2702;51.014;7.170;2023-11-21T14:49:01;42.30;;;19.03;;
5357;SDS011;2702;51.014;7.170;2023-11-21T14:51:50;41.47;;;19.70;;
5357;SDS011;2702;51.014;7.170;2023-11-21T14:54:21;33.43;;;18.07;;
5357;SDS011;2702;51.014;7.170;2023-11-21T14:57:08;35.83;;;18.80;;
5357;SDS011;2702;51.014;7.170;2023-11-21T14:59:45;39.97;;;19.47;;
5357;SDS011;2702;51.014;7.170;2023-11-21T15:02:15;35.20;;;18.67;;
5357;SDS011;2702;51.014;7.170;2023-11-21T15:04:43;35.73;;;19.00;;
5357;SDS011;2702;51.014;7.170;2023-11-21T15:07:10;39.20;;;19.37;;
5357;SDS011;2702;51.014;7.170;2023-11-21T15:09:37;34.17;;;18.77;;
5357;SDS011;2702;51.014;7.170;2023-11-21T15:12:07;33.17;;;18.43;;
5357;SDS011;2702;51.014;7.170;2023-11-21T15:14:37;35.30;;;19.07;;
5357;SDS011;2702;51.014;7.170;2023-11-21T15:17:03;40.70;;;19.67;;
5357;SDS011;2702;51.014;7.170;2023-11-21T15:19:30;27.40;;;16.90;;